Time;durP1;ratioP1;P1;durP2;ratioP2;P2;SDS_P1;SDS_P2;PMS_P1;PMS_P2;Temp;Humidity;BMP_temperature;BMP_pressure;BME280_temperature;BME280_humidity;BME280_pressure;Samples;Min_cycle;Max_cycle;Signal;HPM_P1;HPM_P2
2022/07/15 00:01:55;;;;;;;;;;;21.90;99.90;;;;;;4897785;29;20823;-75
2022/07/15 00:04:23;;;;;;;;;;;21.70;99.90;;;;;;4885796;29;19916;-75
2022/07/15 00:06:48;;;;;;;;;;;21.70;99.90;;;;;;4902685;29;20381;-76
2022/07/15 00:09:16;;;;;;;;;;;21.20;99.90;;;;;;4901736;29;20002;-76
2022/07/15 00:11:44;;;;;;;;;;;20.90;99.90;;;;;;4900703;29;19918;-75
2022/07/15 00:14:14;;;;;;;;;;;20.70;99.90;;;;;;4884736;29;19993;-76
2022/07/15 00:16:40;;;;;;;;;;;20.70;99.90;;;;;;4897056;29;19978;-76
2022/07/15 00:19:08;;;;;;;;;;;20.70;99.90;;;;;;4886432;29;19946;-75
2022/07/15 00:21:37;;;;;;;;;;;20.80;99.90;;;;;;4884791;29;19907;-75
2022/07/15 00:24:04;;;;;;;;;;;20.80;99.90;;;;;;4898605;29;19914;-76
2022/07/15 00:26:30;;;;;;;;;;;20.80;99.90;;;;;;4880752;29;20342;-75
2022/07/15 00:29:03;;;;;;;;;;;20.80;99.90;;;;;;4906134;29;19911;-75
2022/07/15 00:31:31;;;;;;;;;;;20.90;99.90;;;;;;4883339;29;19954;-75
2022/07/15 00:33:57;;;;;;;;;;;20.90;99.90;;;;;;4896081;29;19958;-75
2022/07/15 00:36:22;;;;;;;;;;;20.90;99.90;;;;;;4905099;29;19922;-75
2022/07/15 00:38:51;;;;;;;;;;;21.10;99.90;;;;;;4898657;29;20630;-76
2022/07/15 00:41:19;;;;;;;;;;;21.20;99.90;;;;;;4908593;29;19939;-76
2022/07/15 00:43:48;;;;;;;;;;;21.30;99.90;;;;;;4886175;29;19907;-75
2022/07/15 00:46:20;;;;;;;;;;;21.30;99.90;;;;;;4888223;29;19911;-75
2022/07/15 00:48:47;;;;;;;;;;;21.20;99.90;;;;;;4904834;29;20357;-76
2022/07/15 00:51:21;;;;;;;;;;;21.10;99.90;;;;;;4904166;29;19934;-76
2022/07/15 00:53:48;;;;;;;;;;;20.90;99.90;;;;;;4908901;29;19966;-76
2022/07/15 00:56:13;;;;;;;;;;;20.50;99.90;;;;;;4904861;29;20254;-76
2022/07/15 00:58:42;;;;;;;;;;;20.20;99.90;;;;;;4904778;29;19907;-76
2022/07/15 01:01:08;;;;;;;;;;;20.10;99.90;;;;;;4886803;29;20321;-76
2022/07/15 01:03:36;;;;;;;;;;;19.90;99.90;;;;;;4902644;29;19911;-76
2022/07/15 01:06:03;;;;;;;;;;;19.90;99.90;;;;;;4900491;29;19935;-76
2022/07/15 01:08:28;;;;;;;;;;;19.50;99.90;;;;;;4901493;29;19911;-76
2022/07/15 01:10:56;;;;;;;;;;;19.40;99.90;;;;;;4908625;29;19915;-76
2022/07/15 01:13:22;;;;;;;;;;;19.40;99.90;;;;;;4908521;29;19930;-76
2022/07/15 01:15:49;;;;;;;;;;;19.30;99.90;;;;;;4906543;29;19907;-76
2022/07/15 01:18:19;;;;;;;;;;;19.40;99.90;;;;;;4907582;29;19911;-76
2022/07/15 01:20:54;;;;;;;;;;;19.50;99.90;;;;;;4900980;29;19911;-76
2022/07/15 01:23:20;;;;;;;;;;;19.50;99.90;;;;;;4905454;29;19911;-76
2022/07/15 01:25:48;;;;;;;;;;;19.60;99.90;;;;;;4901292;29;19961;-75
2022/07/15 01:28:15;;;;;;;;;;;19.70;99.90;;;;;;4904448;29;19911;-75
2022/07/15 01:30:52;;;;;;;;;;;19.90;99.90;;;;;;4904571;29;19907;-76
2022/07/15 01:33:21;;;;;;;;;;;19.80;99.90;;;;;;4886723;29;19911;-76
2022/07/15 01:35:47;;;;;;;;;;;19.90;99.90;;;;;;4886183;29;19953;-76
2022/07/15 01:38:14;;;;;;;;;;;19.90;99.90;;;;;;4904777;29;19954;-75
2022/07/15 01:40:42;;;;;;;;;;;19.80;99.90;;;;;;4899562;29;19918;-75
2022/07/15 01:43:15;;;;;;;;;;;19.90;99.90;;;;;;4903202;29;19946;-75
2022/07/15 01:45:45;;;;;;;;;;;20.00;99.90;;;;;;4904827;29;19907;-75
2022/07/15 01:51:04;;;;;;;;;;;20.00;99.90;;;;;;4900903;29;19922;-76
2022/07/15 01:53:36;;;;;;;;;;;20.00;99.90;;;;;;4904471;29;19911;-76
2022/07/15 01:56:19;;;;;;;;;;;19.90;99.90;;;;;;4903721;29;19919;-76
2022/07/15 01:58:44;;;;;;;;;;;19.70;99.90;;;;;;4877384;29;19914;-75
2022/07/15 02:01:14;;;;;;;;;;;19.80;99.90;;;;;;4886186;29;19911;-75
2022/07/15 02:03:42;;;;;;;;;;;19.90;99.90;;;;;;4904192;29;19914;-76
2022/07/15 02:06:20;;;;;;;;;;;19.90;99.90;;;;;;4904686;29;19923;-75
2022/07/15 02:08:45;;;;;;;;;;;19.90;99.90;;;;;;4889907;29;19958;-75
2022/07/15 02:11:18;;;;;;;;;;;19.90;99.90;;;;;;4903057;29;20341;-75
2022/07/15 02:13:50;;;;;;;;;;;19.80;99.90;;;;;;4903343;29;19910;-73
2022/07/15 02:16:25;;;;;;;;;;;19.80;99.90;;;;;;4904029;29;20602;-73
2022/07/15 02:18:53;;;;;;;;;;;19.60;99.90;;;;;;4899458;29;19915;-74
2022/07/15 02:21:20;;;;;;;;;;;19.50;99.90;;;;;;4899409;29;19911;-74
2022/07/15 02:23:48;;;;;;;;;;;19.50;99.90;;;;;;4903214;29;20153;-75
2022/07/15 02:26:15;;;;;;;;;;;19.30;99.90;;;;;;4886587;29;19907;-74
2022/07/15 02:28:45;;;;;;;;;;;19.30;99.90;;;;;;4902783;29;20520;-73
2022/07/15 02:31:13;;;;;;;;;;;19.20;99.90;;;;;;4897981;29;19919;-74
2022/07/15 02:33:39;;;;;;;;;;;19.20;99.90;;;;;;4908175;29;20435;-74
2022/07/15 02:36:04;;;;;;;;;;;19.10;99.90;;;;;;4902292;29;19915;-74
2022/07/15 02:38:31;;;;;;;;;;;19.20;99.90;;;;;;4903872;29;20713;-74
2022/07/15 02:41:02;;;;;;;;;;;19.20;99.90;;;;;;4889838;29;19911;-74
2022/07/15 02:43:29;;;;;;;;;;;19.20;99.90;;;;;;4903441;29;19907;-74
2022/07/15 02:45:56;;;;;;;;;;;19.30;99.90;;;;;;4899090;29;20537;-74
2022/07/15 02:48:34;;;;;;;;;;;19.30;99.90;;;;;;4886230;29;19915;-74
2022/07/15 02:50:59;;;;;;;;;;;19.30;99.90;;;;;;4899385;29;20432;-74
2022/07/15 02:53:28;;;;;;;;;;;19.30;99.90;;;;;;4885657;29;19921;-75
2022/07/15 02:56:04;;;;;;;;;;;19.20;99.90;;;;;;4902990;29;20001;-75
2022/07/15 02:58:32;;;;;;;;;;;19.20;99.90;;;;;;4886101;29;19915;-74
2022/07/15 03:00:59;;;;;;;;;;;19.10;99.90;;;;;;4889128;29;19997;-73
2022/07/15 03:03:29;;;;;;;;;;;19.20;99.90;;;;;;4886289;29;20270;-74
2022/07/15 03:06:01;;;;;;;;;;;19.10;99.90;;;;;;4897477;29;19976;-73
2022/07/15 03:08:28;;;;;;;;;;;19.10;99.90;;;;;;4902754;29;20530;-74
2022/07/15 03:10:56;;;;;;;;;;;19.10;99.90;;;;;;4881420;29;19918;-75
2022/07/15 03:13:22;;;;;;;;;;;19.10;99.90;;;;;;4882881;29;20607;-74
2022/07/15 03:15:48;;;;;;;;;;;19.00;99.90;;;;;;4885037;29;19913;-74
2022/07/15 03:18:15;;;;;;;;;;;19.00;99.90;;;;;;4898647;29;19906;-75
2022/07/15 03:20:40;;;;;;;;;;;19.10;99.90;;;;;;4886278;29;19907;-73
2022/07/15 03:23:06;;;;;;;;;;;19.10;99.90;;;;;;4902173;29;19922;-74
2022/07/15 03:25:34;;;;;;;;;;;19.10;99.90;;;;;;4902877;29;19975;-76
2022/07/15 03:28:02;;;;;;;;;;;19.10;99.90;;;;;;4903330;29;19907;-75
2022/07/15 03:30:28;;;;;;;;;;;19.20;99.90;;;;;;4902435;29;19922;-75
2022/07/15 03:32:56;;;;;;;;;;;19.20;99.90;;;;;;4884820;29;19919;-74
2022/07/15 03:35:23;;;;;;;;;;;19.20;99.90;;;;;;4898330;29;19930;-75
2022/07/15 03:37:48;;;;;;;;;;;19.20;99.90;;;;;;4901621;29;19946;-74
2022/07/15 03:40:14;;;;;;;;;;;19.20;99.90;;;;;;4885214;29;19947;-74
2022/07/15 03:42:39;;;;;;;;;;;19.20;99.90;;;;;;4888456;29;20373;-74
2022/07/15 03:45:06;;;;;;;;;;;19.30;99.90;;;;;;4885137;29;20403;-74
2022/07/15 03:47:33;;;;;;;;;;;19.30;99.90;;;;;;4902400;29;20684;-74
2022/07/15 03:49:59;;;;;;;;;;;19.30;99.90;;;;;;4893390;29;20043;-74
2022/07/15 03:52:28;;;;;;;;;;;19.30;99.90;;;;;;4890084;29;21410;-74
2022/07/15 03:54:54;;;;;;;;;;;19.40;99.90;;;;;;4897718;29;19922;-74
2022/07/15 03:57:20;;;;;;;;;;;19.40;99.90;;;;;;4885544;29;19907;-74
2022/07/15 03:59:47;;;;;;;;;;;19.30;99.90;;;;;;4901675;29;19943;-73
2022/07/15 04:02:14;;;;;;;;;;;19.30;99.90;;;;;;4884537;29;19915;-73
2022/07/15 04:04:41;;;;;;;;;;;19.30;99.90;;;;;;4902291;29;19914;-74
2022/07/15 04:07:14;;;;;;;;;;;19.40;99.90;;;;;;4898769;29;19915;-74
2022/07/15 04:09:39;;;;;;;;;;;19.40;99.90;;;;;;4901965;29;19954;-75
2022/07/15 04:12:05;;;;;;;;;;;19.40;99.90;;;;;;4901306;29;19998;-74
2022/07/15 04:14:47;;;;;;;;;;;19.50;99.90;;;;;;4884974;29;19907;-73
2022/07/15 04:17:13;;;;;;;;;;;19.50;99.90;;;;;;4901123;29;20001;-73
2022/07/15 04:19:43;;;;;;;;;;;19.60;99.90;;;;;;4885227;29;19943;-74
2022/07/15 04:22:08;;;;;;;;;;;19.50;99.90;;;;;;4901564;29;20477;-74
2022/07/15 04:24:36;;;;;;;;;;;19.60;99.90;;;;;;4885663;29;20325;-75
2022/07/15 04:27:08;;;;;;;;;;;19.70;99.90;;;;;;4887586;29;19911;-74
2022/07/15 04:29:35;;;;;;;;;;;19.80;99.90;;;;;;4898880;29;19907;-73
2022/07/15 04:32:01;;;;;;;;;;;20.00;99.90;;;;;;4901888;29;19911;-75
2022/07/15 04:34:31;;;;;;;;;;;20.00;99.90;;;;;;4902294;29;19911;-74
2022/07/15 04:36:57;;;;;;;;;;;20.10;99.90;;;;;;4901367;29;20349;-73
2022/07/15 04:39:25;;;;;;;;;;;20.10;99.90;;;;;;4902002;29;19975;-75
2022/07/15 04:41:53;;;;;;;;;;;20.20;99.90;;;;;;4884249;29;19926;-74
2022/07/15 04:44:21;;;;;;;;;;;20.20;99.90;;;;;;4901992;29;19913;-74
2022/07/15 04:46:48;;;;;;;;;;;20.20;99.90;;;;;;4899947;29;20416;-75
2022/07/15 04:52:01;;;;;;;;;;;20.20;99.90;;;;;;4897677;29;20053;-74
2022/07/15 04:54:28;;;;;;;;;;;20.40;99.90;;;;;;4898249;29;19957;-74
2022/07/15 04:56:55;;;;;;;;;;;20.50;99.90;;;;;;4901015;29;19919;-76
2022/07/15 04:59:22;;;;;;;;;;;20.50;99.90;;;;;;4884707;29;19923;-75
2022/07/15 05:01:47;;;;;;;;;;;20.60;99.90;;;;;;4883472;29;19911;-75
2022/07/15 05:04:15;;;;;;;;;;;20.80;99.90;;;;;;4884626;29;19933;-75
2022/07/15 05:06:40;;;;;;;;;;;20.80;99.90;;;;;;4900866;29;19907;-75
2022/07/15 05:09:09;;;;;;;;;;;20.90;99.90;;;;;;4901048;29;19967;-74
2022/07/15 05:11:34;;;;;;;;;;;21.00;99.90;;;;;;4883264;29;19911;-76
2022/07/15 05:14:02;;;;;;;;;;;21.20;99.90;;;;;;4898003;29;20234;-76
2022/07/15 05:16:29;;;;;;;;;;;21.30;99.90;;;;;;4901678;29;19915;-78
2022/07/15 05:18:59;;;;;;;;;;;21.40;99.90;;;;;;4892193;29;20090;-76
2022/07/15 05:21:27;;;;;;;;;;;21.50;99.90;;;;;;4900255;29;19996;-77
2022/07/15 05:23:55;;;;;;;;;;;21.60;99.90;;;;;;4888149;29;19945;-77
2022/07/15 05:26:23;;;;;;;;;;;21.50;99.70;;;;;;4888436;29;20019;-76
2022/07/15 05:28:50;;;;;;;;;;;21.60;99.50;;;;;;4887638;29;20400;-76
2022/07/15 05:31:16;;;;;;;;;;;21.50;99.30;;;;;;4887193;29;19957;-76
2022/07/15 05:33:44;;;;;;;;;;;21.50;99.30;;;;;;4904397;29;20329;-76
2022/07/15 05:36:17;;;;;;;;;;;21.60;99.00;;;;;;4904202;29;19911;-76
2022/07/15 05:38:48;;;;;;;;;;;21.70;98.50;;;;;;4901797;29;19958;-76
2022/07/15 05:41:16;;;;;;;;;;;21.70;98.40;;;;;;4887430;29;19911;-76
2022/07/15 05:43:41;;;;;;;;;;;21.90;97.90;;;;;;4900333;29;19907;-76
2022/07/15 05:46:18;;;;;;;;;;;22.00;97.30;;;;;;4908776;29;19914;-76
2022/07/15 05:48:44;;;;;;;;;;;22.20;97.30;;;;;;4902936;29;19915;-76
2022/07/15 05:51:10;;;;;;;;;;;22.60;96.80;;;;;;4907163;29;20129;-76
2022/07/15 05:53:39;;;;;;;;;;;22.70;95.90;;;;;;4883687;29;20435;-77
2022/07/15 05:56:08;;;;;;;;;;;22.80;95.40;;;;;;4887939;29;19907;-77
2022/07/15 05:58:36;;;;;;;;;;;23.10;93.90;;;;;;4885041;29;19913;-76
2022/07/15 06:01:01;;;;;;;;;;;23.80;92.70;;;;;;4900973;29;19908;-78
2022/07/15 06:03:29;;;;;;;;;;;24.30;91.50;;;;;;4900833;29;19917;-79
2022/07/15 06:06:05;;;;;;;;;;;24.70;88.50;;;;;;4904678;29;19915;-79
2022/07/15 06:08:30;;;;;;;;;;;25.30;87.00;;;;;;4883597;29;20455;-79
2022/07/15 06:10:56;;;;;;;;;;;26.30;83.50;;;;;;4885500;29;19915;-80
2022/07/15 06:13:22;;;;;;;;;;;26.90;80.20;;;;;;4883529;29;19985;-80
2022/07/15 06:15:48;;;;;;;;;;;27.60;77.20;;;;;;4902507;29;20551;-81
2022/07/15 06:18:32;;;;;;;;;;;28.00;75.30;;;;;;4902629;29;19907;-80
2022/07/15 06:21:01;;;;;;;;;;;28.00;73.30;;;;;;4883115;29;19966;-78
2022/07/15 06:23:28;;;;;;;;;;;27.50;73.20;;;;;;4887858;29;19943;-79
2022/07/15 06:25:56;;;;;;;;;;;27.20;73.60;;;;;;4905414;29;19915;-78
2022/07/15 06:28:29;;;;;;;;;;;27.10;73.70;;;;;;4887084;29;19907;-77
2022/07/15 06:30:54;;;;;;;;;;;27.40;73.10;;;;;;4885565;29;20580;-78
2022/07/15 06:33:20;;;;;;;;;;;27.80;70.70;;;;;;4883356;29;19998;-79
2022/07/15 06:35:45;;;;;;;;;;;28.00;70.60;;;;;;4902761;29;20250;-78
2022/07/15 06:38:15;;;;;;;;;;;28.30;70.00;;;;;;4902335;29;19923;-78
2022/07/15 06:40:42;;;;;;;;;;;29.00;68.80;;;;;;4885157;29;20522;-77
2022/07/15 06:43:19;;;;;;;;;;;29.00;67.00;;;;;;4886110;29;19986;-77
2022/07/15 06:45:46;;;;;;;;;;;29.60;65.00;;;;;;4884454;29;19998;-78
2022/07/15 06:48:13;;;;;;;;;;;30.10;63.30;;;;;;4902787;29;19907;-79
2022/07/15 06:50:41;;;;;;;;;;;29.80;62.90;;;;;;4884720;29;19963;-77
2022/07/15 06:53:10;;;;;;;;;;;30.00;62.10;;;;;;4886055;29;19971;-78
2022/07/15 06:55:35;;;;;;;;;;;30.40;61.80;;;;;;4900940;29;19907;-77
2022/07/15 06:58:03;;;;;;;;;;;30.10;61.20;;;;;;4899721;29;19907;-78
2022/07/15 07:00:28;;;;;;;;;;;30.60;60.60;;;;;;4902232;29;19914;-73
2022/07/15 07:02:54;;;;;;;;;;;31.00;59.70;;;;;;4901234;29;19915;-73
2022/07/15 07:05:19;;;;;;;;;;;30.70;59.00;;;;;;4898626;29;19954;-73
2022/07/15 07:07:45;;;;;;;;;;;30.10;59.50;;;;;;4888137;29;20272;-73
2022/07/15 07:10:10;;;;;;;;;;;29.90;58.90;;;;;;4895565;29;19907;-73
2022/07/15 07:12:36;;;;;;;;;;;30.50;58.50;;;;;;4901251;29;19953;-72
2022/07/15 07:15:04;;;;;;;;;;;29.90;59.40;;;;;;4901945;29;19919;-73
2022/07/15 07:17:29;;;;;;;;;;;30.50;58.70;;;;;;4898163;29;20417;-72
2022/07/15 07:19:55;;;;;;;;;;;30.30;58.40;;;;;;4901047;29;19915;-73
2022/07/15 07:22:21;;;;;;;;;;;30.60;59.10;;;;;;4901107;29;20357;-73
2022/07/15 07:24:47;;;;;;;;;;;31.60;57.10;;;;;;4901256;29;20378;-72
2022/07/15 07:27:13;;;;;;;;;;;31.40;57.00;;;;;;4901111;29;20471;-72
2022/07/15 07:29:39;;;;;;;;;;;30.30;57.20;;;;;;4884089;29;20560;-72
2022/07/15 07:32:05;;;;;;;;;;;31.10;56.60;;;;;;4896686;29;19915;-72
2022/07/15 07:34:30;;;;;;;;;;;31.10;55.00;;;;;;4901121;29;19911;-72
2022/07/15 07:36:56;;;;;;;;;;;31.90;54.30;;;;;;4896814;29;20404;-73
2022/07/15 07:39:21;;;;;;;;;;;31.80;53.60;;;;;;4902487;29;20266;-73
2022/07/15 07:41:49;;;;;;;;;;;31.10;54.20;;;;;;4882619;29;19915;-72
2022/07/15 07:44:15;;;;;;;;;;;31.90;53.30;;;;;;4901196;29;20591;-72
2022/07/15 07:46:40;;;;;;;;;;;31.00;53.80;;;;;;4896780;29;19911;-72
2022/07/15 07:49:06;;;;;;;;;;;30.80;53.60;;;;;;4883792;29;20438;-72
2022/07/15 07:51:31;;;;;;;;;;;31.10;53.20;;;;;;4900836;29;20373;-72
2022/07/15 07:53:58;;;;;;;;;;;30.00;53.70;;;;;;4900835;29;20308;-73
2022/07/15 07:56:23;;;;;;;;;;;30.40;54.60;;;;;;4900572;29;19930;-73
2022/07/15 07:58:49;;;;;;;;;;;31.70;53.90;;;;;;4900462;29;19911;-72
2022/07/15 08:01:14;;;;;;;;;;;32.10;52.40;;;;;;4899888;29;19907;-73
2022/07/15 08:03:40;;;;;;;;;;;32.70;51.40;;;;;;4904684;29;20329;-72
2022/07/15 08:06:06;;;;;;;;;;;32.90;51.00;;;;;;4883350;29;19911;-72
2022/07/15 08:08:31;;;;;;;;;;;32.80;50.90;;;;;;4901525;29;19914;-72
2022/07/15 08:10:57;;;;;;;;;;;33.90;49.70;;;;;;4895392;29;20369;-73
2022/07/15 08:13:24;;;;;;;;;;;34.40;48.70;;;;;;4900950;29;19930;-73
2022/07/15 08:15:50;;;;;;;;;;;34.60;47.60;;;;;;4900645;29;19910;-73
2022/07/15 08:18:16;;;;;;;;;;;33.00;49.60;;;;;;4901066;29;20380;-72
2022/07/15 08:20:42;;;;;;;;;;;33.80;48.90;;;;;;4882372;29;19914;-73
2022/07/15 08:23:07;;;;;;;;;;;34.80;48.30;;;;;;4888584;29;20314;-73
2022/07/15 08:25:34;;;;;;;;;;;34.60;46.90;;;;;;4900300;29;19914;-73
2022/07/15 08:28:00;;;;;;;;;;;34.10;47.10;;;;;;4901102;29;19911;-73
2022/07/15 08:30:26;;;;;;;;;;;32.20;49.00;;;;;;4896087;29;19974;-73
2022/07/15 08:32:52;;;;;;;;;;;32.40;49.20;;;;;;4899956;29;19958;-72
2022/07/15 08:35:17;;;;;;;;;;;32.40;49.00;;;;;;4900067;29;19970;-73
2022/07/15 08:37:43;;;;;;;;;;;29.60;50.30;;;;;;4907373;29;19919;-73
2022/07/15 08:40:09;;;;;;;;;;;29.90;52.40;;;;;;4895281;29;19914;-73
2022/07/15 08:42:35;;;;;;;;;;;31.60;50.60;;;;;;4899552;29;19907;-73
2022/07/15 08:45:01;;;;;;;;;;;32.80;49.30;;;;;;4883336;29;20385;-73
2022/07/15 08:47:31;;;;;;;;;;;33.80;48.60;;;;;;4898410;29;20051;-73
2022/07/15 08:49:56;;;;;;;;;;;33.70;47.70;;;;;;4898119;29;19919;-73
2022/07/15 08:52:25;;;;;;;;;;;33.90;47.70;;;;;;4900122;29;19926;-73
2022/07/15 08:54:51;;;;;;;;;;;33.90;47.20;;;;;;4903666;29;19915;-71
2022/07/15 08:57:17;;;;;;;;;;;32.90;48.00;;;;;;4886563;29;20753;-73
2022/07/15 08:59:45;;;;;;;;;;;33.90;46.40;;;;;;4900084;29;19907;-71
2022/07/15 09:02:12;;;;;;;;;;;33.40;46.60;;;;;;4903514;29;20061;-71
2022/07/15 09:04:56;;;;;;;;;;;34.40;47.00;;;;;;4903646;29;19918;-71
2022/07/15 09:07:21;;;;;;;;;;;35.80;45.20;;;;;;4889174;29;19971;-71
2022/07/15 09:09:47;;;;;;;;;;;37.20;44.00;;;;;;4903042;29;19915;-72
2022/07/15 09:12:13;;;;;;;;;;;36.70;43.40;;;;;;4887499;29;20321;-72
2022/07/15 09:14:41;;;;;;;;;;;36.50;43.60;;;;;;4883014;29;20238;-72
2022/07/15 09:17:10;;;;;;;;;;;33.60;43.80;;;;;;4903829;29;19915;-72
2022/07/15 09:19:54;;;;;;;;;;;33.10;46.00;;;;;;4886529;29;20562;-72
2022/07/15 09:22:21;;;;;;;;;;;33.50;44.70;;;;;;4903386;29;19907;-72
2022/07/15 09:24:50;;;;;;;;;;;32.90;45.30;;;;;;4886361;29;19911;-72
2022/07/15 09:27:28;;;;;;;;;;;32.50;45.80;;;;;;4903605;29;19935;-72
2022/07/15 09:38:07;;;;;;;;;;;34.60;45.10;;;;;;4903131;29;19930;-72
2022/07/15 09:40:34;;;;;;;;;;;36.50;42.70;;;;;;4885935;29;19907;-72
2022/07/15 09:43:05;;;;;;;;;;;37.30;41.40;;;;;;4900928;29;19907;-72
2022/07/15 09:45:31;;;;;;;;;;;37.90;41.30;;;;;;4886859;29;20067;-72
2022/07/15 09:48:06;;;;;;;;;;;38.00;40.90;;;;;;4900379;29;19915;-72
2022/07/15 09:50:33;;;;;;;;;;;38.20;40.30;;;;;;4902720;29;19918;-72
2022/07/15 09:52:58;;;;;;;;;;;36.10;42.40;;;;;;4892456;29;20318;-72
2022/07/15 09:55:24;;;;;;;;;;;36.60;41.50;;;;;;4902383;29;20006;-72
2022/07/15 09:57:50;;;;;;;;;;;34.90;41.60;;;;;;4901857;29;19911;-72
2022/07/15 10:00:15;;;;;;;;;;;34.70;42.50;;;;;;4902274;29;19907;-72
2022/07/15 10:02:41;;;;;;;;;;;33.70;43.00;;;;;;4898648;29;20002;-72
2022/07/15 10:05:08;;;;;;;;;;;33.30;43.80;;;;;;4901351;29;19915;-71
2022/07/15 10:07:34;;;;;;;;;;;32.70;43.80;;;;;;4885767;29;19914;-72
2022/07/15 10:10:01;;;;;;;;;;;33.30;44.20;;;;;;4901775;29;19994;-72
2022/07/15 10:12:29;;;;;;;;;;;34.20;43.30;;;;;;4899971;29;19970;-72
2022/07/15 10:14:54;;;;;;;;;;;35.20;43.00;;;;;;4902395;29;19922;-72
2022/07/15 10:17:38;;;;;;;;;;;35.20;42.50;;;;;;4902040;29;19919;-72
2022/07/15 10:20:07;;;;;;;;;;;35.00;42.70;;;;;;4899075;29;19911;-72
2022/07/15 10:22:45;;;;;;;;;;;35.60;42.40;;;;;;4893600;29;20276;-72
2022/07/15 10:25:10;;;;;;;;;;;36.40;42.30;;;;;;4900501;29;20727;-72
2022/07/15 10:27:36;;;;;;;;;;;37.00;41.50;;;;;;4902627;29;19911;-72
2022/07/15 10:30:06;;;;;;;;;;;37.70;40.80;;;;;;4902067;29;19911;-72
2022/07/15 10:33:01;;;;;;;;;;;37.90;40.50;;;;;;4882287;29;19927;-72
2022/07/15 10:35:53;;;;;;;;;;;37.50;40.70;;;;;;4877329;29;20125;-72
2022/07/15 10:38:48;;;;;;;;;;;38.00;40.70;;;;;;4896986;29;20372;-72
2022/07/15 10:41:20;;;;;;;;;;;38.10;40.50;;;;;;4884646;29;20446;-71
2022/07/15 10:43:48;;;;;;;;;;;37.80;40.70;;;;;;4898131;29;19907;-71
2022/07/15 10:46:17;;;;;;;;;;;37.00;41.40;;;;;;4902164;29;19993;-72
2022/07/15 10:48:43;;;;;;;;;;;35.30;41.50;;;;;;4899584;29;19947;-72
2022/07/15 10:51:09;;;;;;;;;;;32.60;44.30;;;;;;4900976;29;20297;-72
2022/07/15 10:53:44;;;;;;;;;;;32.30;46.10;;;;;;4902026;29;19907;-71
2022/07/15 10:56:29;;;;;;;;;;;32.30;45.60;;;;;;4901399;29;19914;-72
2022/07/15 10:59:10;;;;;;;;;;;31.60;46.20;;;;;;4902157;29;21385;-71
2022/07/15 11:01:39;;;;;;;;;;;30.30;46.90;;;;;;4884096;29;19958;-71
2022/07/15 11:04:11;;;;;;;;;;;30.10;48.30;;;;;;4895351;29;19911;-74
2022/07/15 11:06:55;;;;;;;;;;;30.70;47.90;;;;;;4884577;29;19911;-74
2022/07/15 11:09:40;;;;;;;;;;;30.40;48.60;;;;;;4894115;29;19915;-74
2022/07/15 11:12:05;;;;;;;;;;;30.60;47.70;;;;;;4900613;29;19952;-71
2022/07/15 11:15:00;;;;;;;;;;;30.20;48.30;;;;;;4902037;29;19945;-71
2022/07/15 11:17:29;;;;;;;;;;;30.30;48.00;;;;;;4884927;29;20377;-74
2022/07/15 11:19:59;;;;;;;;;;;29.90;48.30;;;;;;4894710;29;20429;-72
2022/07/15 11:22:26;;;;;;;;;;;29.80;49.70;;;;;;4899824;29;19990;-73
2022/07/15 11:24:55;;;;;;;;;;;30.20;48.50;;;;;;4883387;29;20566;-73
2022/07/15 11:27:21;;;;;;;;;;;30.20;48.20;;;;;;4896755;29;20713;-74
2022/07/15 11:29:50;;;;;;;;;;;30.30;48.70;;;;;;4900148;29;20002;-73
2022/07/15 11:32:17;;;;;;;;;;;30.10;48.70;;;;;;4887528;29;19915;-73
2022/07/15 11:34:45;;;;;;;;;;;29.90;49.20;;;;;;4901539;29;19907;-73
2022/07/15 11:37:12;;;;;;;;;;;29.70;49.00;;;;;;4895425;29;19915;-73
2022/07/15 11:39:38;;;;;;;;;;;29.70;48.80;;;;;;4891052;29;19990;-73
2022/07/15 11:44:48;;;;;;;;;;;29.60;49.60;;;;;;4896255;29;19914;-73
2022/07/15 11:47:15;;;;;;;;;;;29.60;49.80;;;;;;4901244;29;19934;-73
2022/07/15 11:49:44;;;;;;;;;;;29.80;49.40;;;;;;4901235;29;20521;-73
2022/07/15 11:52:20;;;;;;;;;;;29.90;49.10;;;;;;4900398;29;19910;-71
2022/07/15 11:54:47;;;;;;;;;;;29.90;49.50;;;;;;4882652;29;19918;-73
2022/07/15 11:57:14;;;;;;;;;;;29.90;49.10;;;;;;4884317;29;19907;-75
2022/07/15 11:59:50;;;;;;;;;;;30.00;49.50;;;;;;4900427;29;19929;-75
2022/07/15 12:02:15;;;;;;;;;;;29.80;49.60;;;;;;4901068;29;19907;-73
2022/07/15 12:04:44;;;;;;;;;;;29.50;48.40;;;;;;4904675;29;20368;-73
2022/07/15 12:07:09;;;;;;;;;;;29.20;49.60;;;;;;4898650;29;19911;-73
2022/07/15 12:09:54;;;;;;;;;;;29.40;48.60;;;;;;4900878;29;19907;-73
2022/07/15 12:12:19;;;;;;;;;;;28.90;48.90;;;;;;4880482;29;20725;-73
2022/07/15 12:14:47;;;;;;;;;;;28.60;48.70;;;;;;4900639;29;19908;-73
2022/07/15 12:17:14;;;;;;;;;;;28.50;48.70;;;;;;4904127;29;19911;-74
2022/07/15 12:19:46;;;;;;;;;;;28.80;48.20;;;;;;4904037;29;19911;-73
2022/07/15 12:22:11;;;;;;;;;;;29.10;48.30;;;;;;4900876;29;19962;-73
2022/07/15 12:24:41;;;;;;;;;;;29.40;47.80;;;;;;4900972;29;19915;-73
2022/07/15 12:27:07;;;;;;;;;;;29.40;48.10;;;;;;4899666;29;19918;-73
2022/07/15 12:29:34;;;;;;;;;;;29.30;47.70;;;;;;4901589;29;20346;-73
2022/07/15 12:32:05;;;;;;;;;;;29.50;48.40;;;;;;4904654;29;19915;-73
2022/07/15 12:34:46;;;;;;;;;;;29.50;47.80;;;;;;4901915;29;20428;-73
2022/07/15 12:37:13;;;;;;;;;;;29.40;47.90;;;;;;4898727;29;19922;-73
2022/07/15 12:39:57;;;;;;;;;;;29.40;47.90;;;;;;4904344;29;19911;-73
2022/07/15 12:42:22;;;;;;;;;;;29.60;48.40;;;;;;4899925;29;20411;-74
2022/07/15 12:45:06;;;;;;;;;;;29.70;48.10;;;;;;4901953;29;19954;-73
2022/07/15 12:47:32;;;;;;;;;;;29.50;47.10;;;;;;4889249;29;19919;-73
2022/07/15 12:50:00;;;;;;;;;;;29.40;47.90;;;;;;4904008;29;19911;-74
2022/07/15 12:52:36;;;;;;;;;;;29.50;47.30;;;;;;4900813;29;19919;-73
2022/07/15 12:55:16;;;;;;;;;;;29.60;47.90;;;;;;4897872;29;19942;-73
2022/07/15 12:57:42;;;;;;;;;;;29.40;46.90;;;;;;4895877;29;19907;-73
2022/07/15 13:00:18;;;;;;;;;;;29.40;47.10;;;;;;4886305;29;19921;-73
2022/07/15 13:03:05;;;;;;;;;;;29.50;47.80;;;;;;4883458;29;20242;-74
2022/07/15 13:05:32;;;;;;;;;;;29.60;47.60;;;;;;4901068;29;20409;-74
2022/07/15 13:07:58;;;;;;;;;;;29.30;47.50;;;;;;4901056;29;19911;-74
2022/07/15 13:10:24;;;;;;;;;;;29.30;48.10;;;;;;4903798;29;19911;-74
2022/07/15 13:12:49;;;;;;;;;;;29.30;48.00;;;;;;4895464;29;19922;-74
2022/07/15 13:15:15;;;;;;;;;;;29.40;47.60;;;;;;4900934;29;19907;-74
2022/07/15 13:17:41;;;;;;;;;;;29.20;47.30;;;;;;4900393;29;19907;-74
2022/07/15 13:20:07;;;;;;;;;;;29.10;47.60;;;;;;4896259;29;19911;-74
2022/07/15 13:22:34;;;;;;;;;;;28.00;48.10;;;;;;4901060;29;20350;-75
2022/07/15 13:25:00;;;;;;;;;;;27.10;49.40;;;;;;4880615;29;19990;-74
2022/07/15 13:27:26;;;;;;;;;;;27.30;49.90;;;;;;4900499;29;20325;-74
2022/07/15 13:29:51;;;;;;;;;;;28.10;50.30;;;;;;4895666;29;19915;-74
2022/07/15 13:32:17;;;;;;;;;;;28.60;48.70;;;;;;4902378;29;20337;-75
2022/07/15 13:34:45;;;;;;;;;;;28.80;47.80;;;;;;4899627;29;19918;-74
2022/07/15 13:37:10;;;;;;;;;;;28.70;47.80;;;;;;4898255;29;19922;-74
2022/07/15 13:39:36;;;;;;;;;;;28.40;48.40;;;;;;4898409;29;20361;-74
2022/07/15 13:42:01;;;;;;;;;;;27.90;48.10;;;;;;4900511;29;19907;-74
2022/07/15 13:44:27;;;;;;;;;;;28.00;48.80;;;;;;4900736;29;20324;-74
2022/07/15 13:46:54;;;;;;;;;;;28.30;48.00;;;;;;4903187;29;19915;-74
2022/07/15 13:51:22;;;;;;;;;;;28.00;48.30;;;;;;4898962;29;19915;-75
2022/07/15 13:52:07;;;;;;;;;;;27.70;48.50;;;;;;4898349;29;19915;-67
2022/07/15 13:54:33;;;;;;;;;;;27.80;49.30;;;;;;4902868;29;20830;-67
2022/07/15 13:56:58;;;;;;;;;;;28.20;48.50;;;;;;4902829;29;19914;-66
2022/07/15 13:59:24;;;;;;;;;;;28.30;48.00;;;;;;4898760;29;19907;-66
2022/07/15 14:01:51;;;;;;;;;;;28.40;48.20;;;;;;4901885;29;19990;-66
2022/07/15 14:04:17;;;;;;;;;;;28.30;47.50;;;;;;4882660;29;19954;-66
2022/07/15 14:06:42;;;;;;;;;;;28.20;48.20;;;;;;4901825;29;19984;-66
2022/07/15 14:09:08;;;;;;;;;;;28.50;48.80;;;;;;4902196;29;19951;-66
2022/07/15 14:11:34;;;;;;;;;;;28.70;47.70;;;;;;4897860;29;19918;-66
2022/07/15 14:14:00;;;;;;;;;;;28.80;48.00;;;;;;4903048;29;19943;-66
2022/07/15 14:16:25;;;;;;;;;;;28.50;47.80;;;;;;4881894;29;21019;-66
2022/07/15 14:18:52;;;;;;;;;;;28.30;46.70;;;;;;4902078;29;19911;-66
2022/07/15 14:21:19;;;;;;;;;;;28.30;47.40;;;;;;4883154;29;19949;-66
2022/07/15 14:23:45;;;;;;;;;;;28.40;47.50;;;;;;4902558;29;20046;-65
2022/07/15 14:26:11;;;;;;;;;;;28.40;47.90;;;;;;4902108;29;20511;-66
2022/07/15 14:28:37;;;;;;;;;;;28.10;47.90;;;;;;4898771;29;19911;-65
2022/07/15 14:31:04;;;;;;;;;;;28.00;47.80;;;;;;4901761;29;19911;-65
2022/07/15 14:33:29;;;;;;;;;;;27.70;47.90;;;;;;4899101;29;19978;-66
2022/07/15 14:35:55;;;;;;;;;;;27.50;48.00;;;;;;4901359;29;20933;-66
2022/07/15 14:38:20;;;;;;;;;;;27.60;48.70;;;;;;4900641;29;21427;-66
2022/07/15 14:40:46;;;;;;;;;;;27.80;48.60;;;;;;4903048;29;20403;-72